createdAt,value
2018-02-06T00:00:56.930Z,987.92
2018-02-06T00:01:56.885Z,987.89
2018-02-06T00:02:56.884Z,987.93
2018-02-06T00:03:56.960Z,987.92
2018-02-06T00:04:56.830Z,987.98
2018-02-06T00:05:56.813Z,988.00
2018-02-06T00:06:56.784Z,987.95
2018-02-06T00:07:56.771Z,987.99
2018-02-06T00:08:57.363Z,988.00
2018-02-06T00:09:56.721Z,988.01
2018-02-06T00:10:56.727Z,988.00
2018-02-06T00:11:56.694Z,988.02
2018-02-06T00:12:56.645Z,988.03
2018-02-06T00:13:56.739Z,988.02
2018-02-06T00:14:56.631Z,988.06
2018-02-06T00:15:56.676Z,988.04
2018-02-06T00:16:56.626Z,988.05
2018-02-06T00:17:56.557Z,988.02
2018-02-06T00:18:56.527Z,988.02
2018-02-06T00:19:56.589Z,988.07
2018-02-06T00:20:56.460Z,988.10
2018-02-06T00:21:56.491Z,988.07
2018-02-06T00:22:56.440Z,988.10
2018-02-06T00:23:56.403Z,988.14
2018-02-06T00:24:56.469Z,988.14
2018-02-06T00:25:56.518Z,988.15
2018-02-06T00:26:56.348Z,988.22
2018-02-06T00:27:56.910Z,988.23
2018-02-06T00:28:56.321Z,988.25
2018-02-06T00:29:56.282Z,988.23
2018-02-06T00:30:56.309Z,988.25
2018-02-06T00:31:56.332Z,988.27
2018-02-06T00:32:56.752Z,988.30
2018-02-06T00:33:56.181Z,988.29
2018-02-06T00:34:56.175Z,988.30
2018-02-06T00:35:56.910Z,988.25
2018-02-06T00:36:56.314Z,988.28
2018-02-06T00:37:56.093Z,988.26
2018-02-06T00:38:56.611Z,988.25
2018-02-06T00:39:56.121Z,988.25
2018-02-06T00:40:56.030Z,988.26
2018-02-06T00:41:56.104Z,988.29
2018-02-06T00:42:56.046Z,988.30
2018-02-06T00:43:55.961Z,988.26
2018-02-06T00:44:55.978Z,988.29
2018-02-06T00:45:55.906Z,988.36
2018-02-06T00:46:56.542Z,988.35
2018-02-06T00:47:56.423Z,988.36
2018-02-06T00:48:55.854Z,988.35
2018-02-06T00:49:55.816Z,988.37
2018-02-06T00:50:55.800Z,988.36
2018-02-06T00:51:55.948Z,988.37
2018-02-06T00:52:55.748Z,988.38
2018-02-06T00:53:55.741Z,988.39
2018-02-06T00:54:56.259Z,988.40
2018-02-06T00:55:55.694Z,988.41
2018-02-06T00:56:55.756Z,988.45
2018-02-06T00:57:55.636Z,988.49
2018-02-06T00:58:55.615Z,988.47
2018-02-06T00:59:55.591Z,988.46
2018-02-06T01:00:55.635Z,988.53
2018-02-06T01:01:55.589Z,988.49
2018-02-06T01:02:55.617Z,988.56
2018-02-06T01:03:55.514Z,988.57
2018-02-06T01:04:55.505Z,988.59
2018-02-06T01:05:55.447Z,988.59
2018-02-06T01:06:55.426Z,988.58
2018-02-06T01:07:55.402Z,988.58
2018-02-06T01:08:55.475Z,988.59
2018-02-06T01:09:55.342Z,988.62
2018-02-06T01:10:55.410Z,988.59
2018-02-06T01:11:55.304Z,988.64
2018-02-06T01:12:55.294Z,988.64
2018-02-06T01:13:55.252Z,988.69
2018-02-06T01:14:55.343Z,988.71
2018-02-06T01:15:55.224Z,988.72
2018-02-06T01:16:55.217Z,988.76
2018-02-06T01:17:55.161Z,988.77
2018-02-06T01:18:55.124Z,988.76
2018-02-06T01:19:55.251Z,988.78
2018-02-06T01:20:55.125Z,988.84
2018-02-06T01:21:55.651Z,988.81
2018-02-06T01:22:55.041Z,988.86
2018-02-06T01:23:55.552Z,988.89
2018-02-06T01:24:55.165Z,988.93
2018-02-06T01:25:55.501Z,988.90
2018-02-06T01:26:54.975Z,988.93
2018-02-06T01:27:54.936Z,988.94
2018-02-06T01:28:54.923Z,988.95
2018-02-06T01:29:55.545Z,988.98
2018-02-06T01:30:54.851Z,988.98
2018-02-06T01:31:54.842Z,988.98
2018-02-06T01:32:54.799Z,988.99
2018-02-06T01:33:55.322Z,988.98
2018-02-06T01:34:55.534Z,988.98
2018-02-06T01:35:54.715Z,988.99
2018-02-06T01:36:55.705Z,988.98
2018-02-06T01:37:54.694Z,988.96
2018-02-06T01:38:55.094Z,988.96
2018-02-06T01:39:54.696Z,988.96
2018-02-06T01:40:55.178Z,988.92
2018-02-06T01:41:54.666Z,988.98
2018-02-06T01:42:55.479Z,988.97
2018-02-06T01:43:55.087Z,988.96
2018-02-06T01:44:54.523Z,988.98
2018-02-06T01:45:55.067Z,989.02
2018-02-06T01:46:54.607Z,989.00
2018-02-06T01:47:54.446Z,989.04
2018-02-06T01:48:54.956Z,989.01
2018-02-06T01:49:54.507Z,989.01
2018-02-06T01:50:54.532Z,989.03
2018-02-06T01:51:54.393Z,988.99
2018-02-06T01:52:54.432Z,989.00
2018-02-06T01:53:54.296Z,989.02
2018-02-06T01:54:54.295Z,989.02
2018-02-06T01:55:54.245Z,989.04
2018-02-06T01:56:54.782Z,989.09
2018-02-06T01:57:54.841Z,989.08
2018-02-06T01:58:54.206Z,989.05
2018-02-06T01:59:54.162Z,989.05
2018-02-06T02:00:54.158Z,989.04
2018-02-06T02:01:54.650Z,989.07
2018-02-06T02:02:54.192Z,989.08
2018-02-06T02:03:54.676Z,989.11
2018-02-06T02:04:54.042Z,989.08
2018-02-06T02:05:54.572Z,989.10
2018-02-06T02:06:54.523Z,989.13
2018-02-06T02:07:54.073Z,989.12
2018-02-06T02:08:53.981Z,989.14
2018-02-06T02:09:54.116Z,989.12
2018-02-06T02:10:53.896Z,989.14
2018-02-06T02:11:53.873Z,989.15
2018-02-06T02:12:53.958Z,989.18
2018-02-06T02:13:53.948Z,989.14
2018-02-06T02:14:54.328Z,989.17
2018-02-06T02:15:54.275Z,989.16
2018-02-06T02:16:53.777Z,989.20
2018-02-06T02:17:54.439Z,989.23
2018-02-06T02:18:53.805Z,989.23
2018-02-06T02:19:54.217Z,989.25
2018-02-06T02:20:54.208Z,989.26
2018-02-06T02:21:54.167Z,989.24
2018-02-06T02:22:54.136Z,989.25
2018-02-06T02:23:53.668Z,989.21
2018-02-06T02:24:53.778Z,989.28
2018-02-06T02:25:53.979Z,989.26
2018-02-06T02:26:54.057Z,989.25
2018-02-06T02:27:53.503Z,989.25
2018-02-06T02:28:53.467Z,989.24
2018-02-06T02:29:53.435Z,989.25
2018-02-06T02:30:54.040Z,989.26
2018-02-06T02:31:53.938Z,989.25
2018-02-06T02:32:54.050Z,989.31
2018-02-06T02:33:53.371Z,989.34
2018-02-06T02:34:53.361Z,989.39
2018-02-06T02:35:53.399Z,989.39
2018-02-06T02:36:53.359Z,989.39
2018-02-06T02:37:53.760Z,989.40
2018-02-06T02:38:53.861Z,989.45
2018-02-06T02:39:53.183Z,989.50
2018-02-06T02:40:53.282Z,989.48
2018-02-06T04:38:50.280Z,990.25
2018-02-06T04:39:50.186Z,990.26
2018-02-06T04:40:50.261Z,990.29
2018-02-06T04:41:50.148Z,990.28
2018-02-06T04:42:50.109Z,990.27
2018-02-06T04:43:50.102Z,990.22
2018-02-06T04:44:50.060Z,990.23
2018-02-06T04:45:50.098Z,990.23
2018-02-06T04:46:50.112Z,990.24
2018-02-06T04:47:49.981Z,990.23
2018-02-06T04:48:49.952Z,990.22
2018-02-06T04:49:49.949Z,990.18
2018-02-06T04:50:49.922Z,990.21
2018-02-06T04:51:49.985Z,990.15
2018-02-06T04:52:49.870Z,990.13
2018-02-06T04:53:49.844Z,990.15
2018-02-06T04:54:49.824Z,990.17
2018-02-06T04:55:49.790Z,990.17
2018-02-06T04:56:49.924Z,990.16
2018-02-06T04:57:49.766Z,990.15
2018-02-06T04:58:49.704Z,990.20
2018-02-06T04:59:49.689Z,990.18
2018-02-06T05:00:49.645Z,990.18
2018-02-06T05:01:49.743Z,990.18
2018-02-06T05:02:49.596Z,990.21
2018-02-06T05:03:49.577Z,990.18
2018-02-06T05:04:49.573Z,990.19
2018-02-06T05:05:49.527Z,990.14
2018-02-06T05:06:49.513Z,990.14
2018-02-06T05:07:49.633Z,990.17
2018-02-06T05:08:49.547Z,990.13
2018-02-06T05:09:49.416Z,990.16
2018-02-06T05:10:49.405Z,990.15
2018-02-06T05:11:49.376Z,990.14
2018-02-06T05:12:49.358Z,990.12
2018-02-06T05:13:49.426Z,990.10
2018-02-06T05:14:49.320Z,990.07
2018-02-06T05:15:49.267Z,990.02
2018-02-06T05:16:49.291Z,990.02
2018-02-06T05:17:49.219Z,990.01
2018-02-06T05:18:49.295Z,990.01
2018-02-06T05:19:49.178Z,989.97
2018-02-06T05:20:49.157Z,989.97
2018-02-06T05:21:49.127Z,989.92
2018-02-06T05:22:49.099Z,989.93
2018-02-06T05:23:49.126Z,989.93
2018-02-06T05:24:49.196Z,989.91
2018-02-06T05:25:49.019Z,989.94
2018-02-06T05:26:48.998Z,989.94
2018-02-06T05:27:48.982Z,989.93
2018-02-06T05:28:48.940Z,989.92
2018-02-06T05:29:49.017Z,989.90
2018-02-06T05:30:48.883Z,989.91
2018-02-06T05:31:48.874Z,989.87
2018-02-06T05:32:48.849Z,989.90
2018-02-06T05:33:48.813Z,989.91
2018-02-06T05:34:48.963Z,989.93
2018-02-06T05:35:48.775Z,989.89
2018-02-06T05:36:48.741Z,989.92
2018-02-06T05:37:48.725Z,989.89
2018-02-06T05:38:48.675Z,989.89
2018-02-06T05:39:48.755Z,989.87
2018-02-06T05:40:48.640Z,989.89
2018-02-06T05:41:48.611Z,989.88
2018-02-06T05:42:48.575Z,989.82
2018-02-06T05:43:48.556Z,989.85
2018-02-06T05:44:48.624Z,989.84
2018-02-06T05:45:48.497Z,989.88
2018-02-06T05:46:48.495Z,989.87
2018-02-06T05:47:48.528Z,989.88
2018-02-06T05:48:48.433Z,989.83
2018-02-06T05:49:48.415Z,989.86
2018-02-06T05:50:48.485Z,989.85
2018-02-06T05:51:48.348Z,989.83
2018-02-06T05:52:48.318Z,989.84
2018-02-06T05:53:48.312Z,989.84
2018-02-06T05:54:48.296Z,989.83
2018-02-06T05:55:48.407Z,989.75
2018-02-06T05:56:48.268Z,989.71
2018-02-06T05:57:48.205Z,989.66
2018-02-06T05:58:48.170Z,989.62
2018-02-06T05:59:48.162Z,989.63
2018-02-06T06:00:48.169Z,989.58
2018-02-06T06:01:48.200Z,989.57
2018-02-06T06:02:48.067Z,989.57
2018-02-06T06:03:48.047Z,989.52
2018-02-06T06:04:48.036Z,989.53
2018-02-06T06:05:48.000Z,989.49
2018-02-06T06:06:48.078Z,989.47
2018-02-06T06:07:47.945Z,989.43
2018-02-06T06:08:47.910Z,989.38
2018-02-06T06:09:47.900Z,989.42
2018-02-06T06:10:47.869Z,989.40
2018-02-06T06:11:47.931Z,989.39
2018-02-06T06:12:47.817Z,989.40
2018-02-06T06:13:47.783Z,989.36
2018-02-06T06:14:47.757Z,989.32
2018-02-06T06:15:47.722Z,989.30
2018-02-06T06:16:47.814Z,989.28
2018-02-06T06:17:47.824Z,989.28
2018-02-06T06:18:47.654Z,989.25
2018-02-06T06:19:47.640Z,989.20
2018-02-06T06:20:47.606Z,989.21
2018-02-06T06:21:47.676Z,989.22
2018-02-06T06:22:47.563Z,989.20
2018-02-06T06:23:47.526Z,989.22
2018-02-06T06:24:47.523Z,989.17
2018-02-06T06:25:47.514Z,989.13
2018-02-06T06:26:47.454Z,989.12
2018-02-06T06:27:47.603Z,989.07
2018-02-06T06:28:47.405Z,989.10
2018-02-06T06:29:47.376Z,989.07
2018-02-06T06:30:47.371Z,989.13
2018-02-06T06:31:47.316Z,989.15
2018-02-06T06:32:47.324Z,989.11
2018-02-06T06:33:47.374Z,989.02
2018-02-06T06:34:47.240Z,989.00
2018-02-06T06:35:47.226Z,988.94
2018-02-06T06:36:47.193Z,988.93
2018-02-06T06:37:47.160Z,988.88
2018-02-06T06:38:47.290Z,988.94
2018-02-06T06:39:47.109Z,988.96
2018-02-06T06:40:47.079Z,988.92
2018-02-06T06:41:47.072Z,988.91
2018-02-06T06:42:47.054Z,988.89
2018-02-06T06:43:47.121Z,988.89
2018-02-06T06:44:46.981Z,988.88
2018-02-06T06:45:46.959Z,988.82
2018-02-06T06:46:46.936Z,988.88
2018-02-06T06:47:46.902Z,988.84
2018-02-06T06:48:46.982Z,988.85
2018-02-06T06:49:46.863Z,988.87
2018-02-06T06:50:46.822Z,988.85
2018-02-06T06:51:46.808Z,988.85
2018-02-06T06:52:46.780Z,988.86
2018-02-06T06:53:46.858Z,988.82
2018-02-06T06:54:46.730Z,988.81
2018-02-06T06:55:46.733Z,988.81
2018-02-06T06:56:46.693Z,988.85
2018-02-06T06:57:46.655Z,988.82
2018-02-06T06:58:46.722Z,988.78
2018-02-06T06:59:46.582Z,988.79
2018-02-06T07:00:46.556Z,988.82
2018-02-06T07:01:46.621Z,988.77
2018-02-06T07:02:46.505Z,988.75
2018-02-06T07:03:46.484Z,988.72
2018-02-06T07:04:46.554Z,988.69
2018-02-06T07:05:46.424Z,988.69
2018-02-06T07:06:46.406Z,988.72
2018-02-06T07:07:46.402Z,988.70
2018-02-06T07:08:46.355Z,988.65
2018-02-06T07:09:46.327Z,988.64
2018-02-06T07:10:46.410Z,988.65
2018-02-06T07:11:46.293Z,988.63
2018-02-06T07:12:46.264Z,988.57
2018-02-06T07:13:46.245Z,988.56
2018-02-06T07:14:46.228Z,988.50
2018-02-06T07:15:46.269Z,988.47
2018-02-06T07:16:46.174Z,988.41
2018-02-06T07:17:46.134Z,988.38
2018-02-06T07:18:46.103Z,988.42
2018-02-06T07:19:46.096Z,988.36
2018-02-06T07:20:46.139Z,988.39
2018-02-06T07:21:46.034Z,988.39
2018-02-06T07:22:46.008Z,988.36
2018-02-06T07:23:45.970Z,988.39
2018-02-06T07:24:45.941Z,988.36
2018-02-06T07:25:46.026Z,988.33
2018-02-06T07:26:45.909Z,988.28
2018-02-06T07:27:45.877Z,988.29
2018-02-06T07:28:45.842Z,988.26
2018-02-06T07:29:45.809Z,988.25
2018-02-06T07:30:45.910Z,988.28
2018-02-06T07:31:45.997Z,988.23
2018-02-06T07:32:45.741Z,988.26
2018-02-06T07:33:45.714Z,988.18
2018-02-06T07:34:45.688Z,988.20
2018-02-06T07:35:45.770Z,988.16
2018-02-06T07:36:45.632Z,988.16
2018-02-06T07:37:45.649Z,988.12
2018-02-06T07:38:45.574Z,988.13
2018-02-06T07:39:45.555Z,988.14
2018-02-06T07:40:45.623Z,988.18
2018-02-06T07:41:45.494Z,988.16
2018-02-06T07:42:45.492Z,988.15
2018-02-06T07:43:45.447Z,988.14
2018-02-06T07:44:45.424Z,988.16
2018-02-06T07:45:45.395Z,988.11
2018-02-06T07:46:45.465Z,988.13
2018-02-06T07:47:45.346Z,988.10
2018-02-06T07:48:45.315Z,988.10
2018-02-06T07:49:45.304Z,988.13
2018-02-06T07:50:45.293Z,988.12
2018-02-06T07:51:45.352Z,988.08
2018-02-06T07:52:45.295Z,988.11
2018-02-06T07:53:45.216Z,988.10
2018-02-06T07:54:45.172Z,988.12
2018-02-06T07:55:45.137Z,988.13
2018-02-06T07:56:45.307Z,988.16
2018-02-06T07:57:45.156Z,988.16
2018-02-06T07:58:45.060Z,988.15
2018-02-06T07:59:45.046Z,988.16
2018-02-06T08:00:45.012Z,988.15
2018-02-06T08:01:45.100Z,988.14
2018-02-06T08:02:44.966Z,988.15
2018-02-06T08:03:44.931Z,988.14
2018-02-06T08:04:44.900Z,988.15
2018-02-06T08:05:44.868Z,988.11
2018-02-06T08:06:44.968Z,988.13
2018-02-06T08:07:44.836Z,988.11
2018-02-06T08:08:44.812Z,988.11
2018-02-06T08:09:44.771Z,988.11
2018-02-06T08:10:44.758Z,988.10
2018-02-06T08:11:44.823Z,988.09
2018-02-06T08:12:44.709Z,988.08
2018-02-06T08:13:44.679Z,988.10
2018-02-06T08:14:44.652Z,988.12
2018-02-06T08:15:44.642Z,988.11
2018-02-06T08:16:44.692Z,988.14
2018-02-06T08:17:44.569Z,988.12
2018-02-06T08:18:44.550Z,988.10
2018-02-06T08:19:44.520Z,988.12
2018-02-06T08:20:44.498Z,988.09
2018-02-06T08:21:44.493Z,988.06
2018-02-06T08:22:44.534Z,988.02
2018-02-06T08:23:44.514Z,988.03
2018-02-06T08:24:44.461Z,988.03
2018-02-06T08:25:44.355Z,988.02
2018-02-06T08:26:44.344Z,987.99
2018-02-06T08:27:44.313Z,988.00
2018-02-06T08:28:44.375Z,988.01
2018-02-06T08:29:44.249Z,987.99
2018-02-06T08:30:44.232Z,987.96
2018-02-06T08:31:44.206Z,987.99
2018-02-06T08:32:44.168Z,987.97
2018-02-06T08:33:44.254Z,987.95
2018-02-06T08:34:44.116Z,987.96
2018-02-06T08:35:44.103Z,987.94
2018-02-06T08:36:44.137Z,987.96
2018-02-06T08:37:44.037Z,987.93
2018-02-06T08:38:44.108Z,987.93
2018-02-06T08:39:43.988Z,987.92
2018-02-06T08:40:43.976Z,987.92
2018-02-06T08:41:43.936Z,987.94
2018-02-06T08:42:43.918Z,987.94
2018-02-06T08:43:43.996Z,987.89
2018-02-06T08:44:43.850Z,987.94
2018-02-06T08:45:43.840Z,987.91
2018-02-06T08:46:43.809Z,987.95
2018-02-06T08:47:43.770Z,987.94
2018-02-06T08:48:43.866Z,987.94
2018-02-06T08:49:43.737Z,987.95
2018-02-06T08:50:43.697Z,987.95
2018-02-06T08:51:43.670Z,987.94
2018-02-06T08:52:43.641Z,987.91
2018-02-06T08:53:43.678Z,987.94
2018-02-06T08:54:43.707Z,987.92
2018-02-06T08:55:43.580Z,987.91
2018-02-06T08:56:43.549Z,987.97
2018-02-06T08:57:43.512Z,987.95
2018-02-06T08:58:43.493Z,987.96
2018-02-06T08:59:43.454Z,987.97
2018-02-06T09:00:43.543Z,987.96
2018-02-06T09:01:43.414Z,987.97
2018-02-06T09:02:43.386Z,987.93
2018-02-06T09:03:43.354Z,987.94
2018-02-06T09:04:43.324Z,987.92
2018-02-06T09:05:43.313Z,987.94
2018-02-06T09:06:43.392Z,987.95
2018-02-06T09:07:43.254Z,987.97
2018-02-06T09:08:43.224Z,987.90
2018-02-06T09:09:43.196Z,987.91
2018-02-06T09:10:43.182Z,987.92
2018-02-06T09:11:43.265Z,987.90
2018-02-06T09:12:43.122Z,987.89
2018-02-06T09:13:43.088Z,987.92
2018-02-06T09:14:43.091Z,987.90
2018-02-06T09:15:43.066Z,987.88
2018-02-06T09:16:43.128Z,987.90
2018-02-06T09:17:43.009Z,987.88
2018-02-06T09:20:34.685Z,987.86
2018-02-06T09:21:29.605Z,987.87
2018-02-06T09:22:29.679Z,987.86
2018-02-06T09:23:29.563Z,987.86
2018-02-06T09:24:29.540Z,987.82
2018-02-06T09:25:29.531Z,987.80
2018-02-06T09:26:29.496Z,987.81
2018-02-06T09:27:29.450Z,987.86
2018-02-06T09:28:29.522Z,987.84
2018-02-06T09:29:29.423Z,987.86
2018-02-06T09:30:29.371Z,987.85
2018-02-06T09:31:29.359Z,987.83
2018-02-06T09:32:29.313Z,987.83
2018-02-06T09:33:29.313Z,987.81
2018-02-06T09:34:29.360Z,987.83
2018-02-06T09:35:29.250Z,987.85
2018-02-06T09:36:29.212Z,987.88
2018-02-06T09:37:29.196Z,987.85
2018-02-06T09:38:29.172Z,987.86
2018-02-06T09:39:29.232Z,987.88
2018-02-06T09:40:29.129Z,987.87
2018-02-06T09:41:29.088Z,987.82
2018-02-06T09:42:29.133Z,987.87
2018-02-06T09:43:29.024Z,987.82
2018-02-06T09:44:29.117Z,987.84
2018-02-06T09:45:29.043Z,987.88
2018-02-06T09:46:28.945Z,987.88
2018-02-06T09:47:28.933Z,987.89
2018-02-06T09:48:28.895Z,987.89
2018-02-06T09:49:28.971Z,987.87
2018-02-06T09:50:28.847Z,987.89
2018-02-06T09:51:28.844Z,987.85
2018-02-06T09:52:28.803Z,987.85
2018-02-06T09:53:28.774Z,987.89
2018-02-06T09:54:28.789Z,987.88
2018-02-06T09:55:28.823Z,987.89
2018-02-06T09:56:28.677Z,987.88
2018-02-06T09:57:28.658Z,987.85
2018-02-06T09:58:28.669Z,987.88
2018-02-06T09:59:28.623Z,987.88
2018-02-06T10:00:28.679Z,987.89
2018-02-06T10:01:28.587Z,987.93
2018-02-06T10:02:28.535Z,987.89
2018-02-06T10:03:28.514Z,987.93
2018-02-06T10:04:28.469Z,987.91
2018-02-06T10:05:28.456Z,987.94
2018-02-06T10:06:28.535Z,987.94
2018-02-06T10:07:28.413Z,987.93
2018-02-06T10:08:28.377Z,987.92
2018-02-06T10:09:28.361Z,987.92
2018-02-06T10:10:28.322Z,987.91
2018-02-06T10:11:28.301Z,987.93
2018-02-06T10:12:28.377Z,987.92
2018-02-06T10:13:28.247Z,987.95
2018-02-06T10:14:28.213Z,987.94
2018-02-06T10:15:28.199Z,987.94
2018-02-06T10:16:28.153Z,987.96
2018-02-06T10:17:28.234Z,988.01
2018-02-06T10:18:28.101Z,988.02
2018-02-06T10:19:28.073Z,988.00
2018-02-06T10:20:28.054Z,988.02
2018-02-06T10:21:28.053Z,988.02
2018-02-06T10:22:28.110Z,988.02
2018-02-06T10:23:27.992Z,988.04
2018-02-06T10:24:27.945Z,988.03
2018-02-06T10:25:27.912Z,988.07
2018-02-06T10:26:27.893Z,988.04
2018-02-06T10:27:27.930Z,988.08
2018-02-06T10:28:27.933Z,988.05
2018-02-06T10:29:27.824Z,988.06
2018-02-06T10:30:27.804Z,988.09
2018-02-06T10:31:27.755Z,988.07
2018-02-06T10:32:27.758Z,988.07
2018-02-06T10:33:27.805Z,988.11
2018-02-06T10:34:27.684Z,988.10
2018-02-06T10:35:27.664Z,988.08
2018-02-06T10:36:27.652Z,988.09
2018-02-06T10:37:27.613Z,988.13
2018-02-06T10:38:27.704Z,988.11
2018-02-06T10:39:27.563Z,988.11
2018-02-06T10:40:27.529Z,988.16
2018-02-06T10:41:27.515Z,988.14
2018-02-06T10:42:27.486Z,988.17
2018-02-06T10:43:27.448Z,988.17
2018-02-06T10:44:27.580Z,988.22
2018-02-06T10:45:27.461Z,988.24
2018-02-06T10:46:27.369Z,988.23
2018-02-06T10:47:27.368Z,988.23
2018-02-06T10:48:27.343Z,988.28
2018-02-06T10:49:27.291Z,988.26
2018-02-06T10:50:27.376Z,988.29
2018-02-06T10:51:27.260Z,988.32
2018-02-06T10:52:27.237Z,988.32
2018-02-06T10:53:27.199Z,988.29
2018-02-06T10:54:27.175Z,988.30
2018-02-06T10:55:27.251Z,988.28
2018-02-06T10:56:27.118Z,988.29
2018-02-06T10:57:27.093Z,988.29
2018-02-06T10:58:27.075Z,988.29
2018-02-06T10:59:27.041Z,988.30
2018-02-06T11:00:27.113Z,988.30
2018-02-06T11:01:26.972Z,988.31
2018-02-06T11:02:26.962Z,988.35
2018-02-06T11:03:26.931Z,988.34
2018-02-06T11:04:26.912Z,988.33
2018-02-06T11:05:26.931Z,988.38
2018-02-06T11:06:26.966Z,988.40
2018-02-06T11:07:26.841Z,988.39
2018-02-06T11:08:26.811Z,988.42
2018-02-06T11:09:26.780Z,988.41
2018-02-06T11:10:26.752Z,988.44
2018-02-06T11:11:26.816Z,988.46
2018-02-06T11:12:26.702Z,988.46
2018-02-06T11:13:26.671Z,988.47
2018-02-06T11:14:26.644Z,988.49
2018-02-06T11:15:26.654Z,988.49
2018-02-06T11:16:26.692Z,988.48
2018-02-06T11:17:26.558Z,988.47
2018-02-06T11:18:26.537Z,988.44
2018-02-06T11:19:26.496Z,988.45
2018-02-06T11:20:26.522Z,988.46
2018-02-06T11:21:26.465Z,988.51
2018-02-06T11:22:26.576Z,988.51
2018-02-06T11:23:26.405Z,988.52
2018-02-06T11:24:26.390Z,988.53
2018-02-06T11:25:26.351Z,988.54
2018-02-06T11:26:26.341Z,988.53
2018-02-06T11:27:26.400Z,988.55
2018-02-06T11:28:26.360Z,988.58
2018-02-06T11:29:26.239Z,988.61
2018-02-06T11:30:26.225Z,988.62
2018-02-06T11:31:26.239Z,988.66
2018-02-06T11:32:26.168Z,988.66
2018-02-06T11:33:26.250Z,988.65
2018-02-06T11:34:26.147Z,988.65
2018-02-06T11:35:26.084Z,988.62
2018-02-06T11:36:26.050Z,988.64
2018-02-06T11:37:26.039Z,988.61
2018-02-06T11:38:26.070Z,988.67
2018-02-06T11:39:26.099Z,988.64
2018-02-06T11:40:25.941Z,988.69
2018-02-06T11:41:25.978Z,988.69
2018-02-06T11:42:25.917Z,988.71
2018-02-06T11:43:25.924Z,988.70
2018-02-06T11:44:25.964Z,988.68
2018-02-06T11:45:25.832Z,988.70
2018-02-06T11:46:25.794Z,988.70
2018-02-06T11:47:25.779Z,988.71
2018-02-06T11:48:25.824Z,988.71
2018-02-06T11:49:25.817Z,988.73
2018-02-06T11:50:25.694Z,988.78
2018-02-06T11:51:25.675Z,988.77
2018-02-06T11:52:25.655Z,988.79
2018-02-06T11:53:25.622Z,988.84
2018-02-06T11:54:25.685Z,988.84
2018-02-06T11:55:25.576Z,988.85
2018-02-06T11:56:25.536Z,988.85
2018-02-06T11:57:25.518Z,988.85
2018-02-06T11:58:25.475Z,988.85
2018-02-06T11:59:25.458Z,988.87
2018-02-06T12:00:25.546Z,988.87
2018-02-06T12:01:25.508Z,988.90
2018-02-06T12:02:25.387Z,988.91
2018-02-06T12:03:25.369Z,988.92
2018-02-06T12:04:25.336Z,988.91
2018-02-06T12:05:25.317Z,988.94
2018-02-06T12:06:25.388Z,988.94
2018-02-06T12:07:25.239Z,988.94
2018-02-06T12:08:25.226Z,988.98
2018-02-06T12:09:25.214Z,988.99
2018-02-06T12:10:25.175Z,988.98
2018-02-06T12:11:25.224Z,988.98
2018-02-06T12:12:25.236Z,989.04
2018-02-06T12:13:25.099Z,989.02
2018-02-06T12:14:25.082Z,989.03
2018-02-06T12:15:25.059Z,989.06
2018-02-06T12:16:25.061Z,989.04
2018-02-06T12:17:25.047Z,989.03
2018-02-06T12:18:25.072Z,989.06
2018-02-06T12:19:24.949Z,989.07
2018-02-06T12:20:24.918Z,989.05
2018-02-06T12:21:24.908Z,989.06
2018-02-06T12:22:24.890Z,989.04
2018-02-06T12:23:24.941Z,989.02
2018-02-06T12:24:24.820Z,989.05
2018-02-06T12:25:24.785Z,989.08
2018-02-06T12:26:24.753Z,989.15
2018-02-06T12:27:24.732Z,989.19
2018-02-06T12:28:24.812Z,989.22
2018-02-06T12:29:24.695Z,989.22
2018-02-06T12:30:24.669Z,989.24
2018-02-06T12:31:24.652Z,989.19
2018-02-06T12:32:24.612Z,989.20
2018-02-06T12:33:24.676Z,989.25
2018-02-06T12:34:24.555Z,989.25
2018-02-06T12:35:24.538Z,989.29
2018-02-06T12:36:24.509Z,989.28
2018-02-06T12:37:24.482Z,989.26
2018-02-06T12:38:24.446Z,989.28
2018-02-06T12:39:24.546Z,989.29
2018-02-06T12:40:24.394Z,989.30
2018-02-06T12:41:24.366Z,989.31
2018-02-06T12:42:24.475Z,989.34
2018-02-06T12:43:24.336Z,989.37
2018-02-06T12:44:24.308Z,989.41
2018-02-06T12:45:24.375Z,989.47
2018-02-06T12:46:24.256Z,989.52
2018-02-06T12:47:24.218Z,989.52
2018-02-06T12:48:24.200Z,989.52
2018-02-06T12:49:24.174Z,989.52
2018-02-06T12:50:24.208Z,989.56
2018-02-06T12:51:24.222Z,989.56
2018-02-06T12:52:24.095Z,989.57
2018-02-06T12:53:24.073Z,989.59
2018-02-06T12:54:24.093Z,989.62
2018-02-06T12:55:24.044Z,989.62
2018-02-06T12:56:24.101Z,989.62
2018-02-06T12:57:23.979Z,989.58
2018-02-06T12:58:23.983Z,989.58
2018-02-06T12:59:23.929Z,989.61
2018-02-06T13:00:23.891Z,989.62
2018-02-06T13:01:23.979Z,989.62
2018-02-06T13:02:23.844Z,989.66
2018-02-06T13:03:23.813Z,989.65
2018-02-06T13:04:23.780Z,989.66
2018-02-06T13:05:23.778Z,989.66
2018-02-06T13:06:23.813Z,989.71
2018-02-06T13:07:23.741Z,989.66
2018-02-06T13:08:23.710Z,989.69
2018-02-06T13:09:23.696Z,989.73
2018-02-06T13:10:23.651Z,989.73
2018-02-06T13:11:23.741Z,989.76
2018-02-06T13:12:23.593Z,989.72
2018-02-06T13:13:23.580Z,989.70
2018-02-06T13:14:23.571Z,989.75
2018-02-06T13:15:23.532Z,989.77
2018-02-06T13:16:23.522Z,989.80
2018-02-06T13:17:23.583Z,989.85
2018-02-06T13:18:23.494Z,989.81
2018-02-06T13:19:23.433Z,989.81
2018-02-06T13:20:23.413Z,989.85
2018-02-06T13:21:23.377Z,989.86
2018-02-06T13:22:23.366Z,989.90
2018-02-06T13:23:23.427Z,989.90
2018-02-06T13:24:23.336Z,989.91
2018-02-06T13:25:23.297Z,989.94
2018-02-06T13:26:23.257Z,989.95
2018-02-06T13:27:23.245Z,990.01
2018-02-06T13:28:23.272Z,990.00
2018-02-06T13:29:23.284Z,990.08
2018-02-06T13:30:23.176Z,990.05
2018-02-06T13:31:23.156Z,990.10
2018-02-06T13:32:23.160Z,990.08
2018-02-06T13:33:23.090Z,990.07
2018-02-06T13:34:23.187Z,990.06
2018-02-06T13:35:23.049Z,990.12
2018-02-06T13:36:23.068Z,990.17
2018-02-06T13:37:23.001Z,990.19
2018-02-06T13:38:22.992Z,990.20
2018-02-06T13:39:23.059Z,990.22
2018-02-06T13:40:22.941Z,990.25
2018-02-06T13:41:22.900Z,990.26
2018-02-06T13:42:22.896Z,990.29
2018-02-06T13:43:22.973Z,990.30
2018-02-06T13:44:22.874Z,990.32
2018-02-06T13:45:23.129Z,990.31
2018-02-06T13:46:23.017Z,990.41
2018-02-06T13:47:22.854Z,990.41
2018-02-06T13:48:22.782Z,990.42
2018-02-06T13:49:22.911Z,990.42
2018-02-06T13:50:22.806Z,990.44
2018-02-06T13:51:22.995Z,990.49
2018-02-06T13:52:22.668Z,990.53
2018-02-06T13:53:22.681Z,990.56
2018-02-06T13:54:22.837Z,990.57
2018-02-06T13:55:22.596Z,990.59
2018-02-06T13:56:22.566Z,990.61
2018-02-06T13:57:22.552Z,990.63
2018-02-06T13:58:22.556Z,990.64
2018-02-06T13:59:22.666Z,990.68
2018-02-06T14:00:22.567Z,990.72
2018-02-06T14:01:22.473Z,990.68
2018-02-06T14:02:22.445Z,990.64
2018-02-06T14:03:22.447Z,990.62
2018-02-06T14:04:22.417Z,990.65
2018-02-06T14:05:22.473Z,990.69
2018-02-06T14:06:22.354Z,990.67
2018-02-06T14:07:22.332Z,990.73
2018-02-06T14:08:22.321Z,990.75
2018-02-06T14:09:22.285Z,990.72
2018-02-06T14:10:22.250Z,990.74
2018-02-06T14:11:22.329Z,990.74
2018-02-06T14:12:22.226Z,990.82
2018-02-06T14:13:22.191Z,990.79
2018-02-06T14:14:22.183Z,990.73
2018-02-06T14:15:22.192Z,990.79
2018-02-06T14:16:22.271Z,990.78
2018-02-06T14:17:22.199Z,990.81
2018-02-06T14:18:22.130Z,990.84
2018-02-06T14:19:22.050Z,990.80
2018-02-06T14:20:22.039Z,990.82
2018-02-06T14:21:22.142Z,990.85
2018-02-06T14:22:21.999Z,990.84
2018-02-06T14:23:22.002Z,990.92
2018-02-06T14:24:21.967Z,990.83
2018-02-06T14:25:21.932Z,990.83
2018-02-06T14:26:22.052Z,990.89
2018-02-06T14:27:21.893Z,990.84